sensor_id;sensor_type;location;lat;lon;timestamp;P1;durP1;ratioP1;P2;durP2;ratioP2
78410;SDS011;67706;51.074;-1.796;2023-11-21T00:00:08;0.65;;;0.55;;
78410;SDS011;67706;51.074;-1.796;2023-11-21T00:02:37;1.35;;;0.30;;
78410;SDS011;67706;51.074;-1.796;2023-11-21T00:05:05;2.70;;;0.32;;
78410;SDS011;67706;51.074;-1.796;2023-11-21T00:07:34;0.32;;;0.20;;
78410;SDS011;67706;51.074;-1.796;2023-11-21T00:10:01;0.85;;;0.43;;
78410;SDS011;67706;51.074;-1.796;2023-11-21T00:12:30;0.80;;;0.20;;
78410;SDS011;67706;51.074;-1.796;2023-11-21T00:14:57;2.78;;;0.63;;
78410;SDS011;67706;51.074;-1.796;2023-11-21T00:17:23;2.00;;;0.43;;
78410;SDS011;67706;51.074;-1.796;2023-11-21T00:19:50;0.85;;;0.43;;
78410;SDS011;67706;51.074;-1.796;2023-11-21T00:22:17;0.13;;;0.13;;
78410;SDS011;67706;51.074;-1.796;2023-11-21T00:24:46;1.13;;;0.30;;
78410;SDS011;67706;51.074;-1.796;2023-11-21T00:27:13;1.05;;;0.30;;
78410;SDS011;67706;51.074;-1.796;2023-11-21T00:29:40;2.85;;;0.30;;
78410;SDS011;67706;51.074;-1.796;2023-11-21T00:32:06;0.00;;;0.00;;
78410;SDS011;67706;51.074;-1.796;2023-11-21T00:34:34;0.88;;;0.30;;
78410;SDS011;67706;51.074;-1.796;2023-11-21T00:37:00;0.40;;;0.20;;
78410;SDS011;67706;51.074;-1.796;2023-11-21T00:39:28;0.75;;;0.20;;
78410;SDS011;67706;51.074;-1.796;2023-11-21T00:41:56;0.25;;;0.20;;
78410;SDS011;67706;51.074;-1.796;2023-11-21T00:44:22;1.60;;;0.28;;
78410;SDS011;67706;51.074;-1.796;2023-11-21T00:46:49;1.25;;;0.40;;
78410;SDS011;67706;51.074;-1.796;2023-11-21T00:49:16;1.65;;;0.30;;
78410;SDS011;67706;51.074;-1.796;2023-11-21T00:51:42;1.50;;;0.43;;
78410;SDS011;67706;51.074;-1.796;2023-11-21T00:54:09;2.67;;;0.47;;
78410;SDS011;67706;51.074;-1.796;2023-11-21T00:56:36;0.82;;;0.30;;
78410;SDS011;67706;51.074;-1.796;2023-11-21T00:59:04;1.10;;;0.47;;
78410;SDS011;67706;51.074;-1.796;2023-11-21T01:01:30;1.45;;;0.30;;
78410;SDS011;67706;51.074;-1.796;2023-11-21T01:03:57;0.22;;;0.10;;
78410;SDS011;67706;51.074;-1.796;2023-11-21T01:06:24;1.35;;;0.20;;
78410;SDS011;67706;51.074;-1.796;2023-11-21T01:08:50;2.67;;;0.47;;
78410;SDS011;67706;51.074;-1.796;2023-11-21T01:11:17;0.20;;;0.10;;
78410;SDS011;67706;51.074;-1.796;2023-11-21T01:13:45;0.47;;;0.30;;
78410;SDS011;67706;51.074;-1.796;2023-11-21T01:16:13;0.98;;;0.30;;
78410;SDS011;67706;51.074;-1.796;2023-11-21T01:18:39;0.40;;;0.20;;
78410;SDS011;67706;51.074;-1.796;2023-11-21T01:21:06;1.70;;;0.40;;
78410;SDS011;67706;51.074;-1.796;2023-11-21T01:23:34;1.15;;;0.40;;
78410;SDS011;67706;51.074;-1.796;2023-11-21T01:26:01;1.05;;;0.50;;
78410;SDS011;67706;51.074;-1.796;2023-11-21T01:28:28;1.85;;;0.40;;
78410;SDS011;67706;51.074;-1.796;2023-11-21T01:30:55;0.30;;;0.20;;
78410;SDS011;67706;51.074;-1.796;2023-11-21T01:33:23;1.95;;;0.60;;
78410;SDS011;67706;51.074;-1.796;2023-11-21T01:35:50;0.50;;;0.25;;
78410;SDS011;67706;51.074;-1.796;2023-11-21T01:38:18;2.33;;;0.40;;
78410;SDS011;67706;51.074;-1.796;2023-11-21T01:40:44;1.13;;;0.50;;
78410;SDS011;67706;51.074;-1.796;2023-11-21T01:43:11;1.77;;;0.45;;
78410;SDS011;67706;51.074;-1.796;2023-11-21T01:45:38;0.90;;;0.35;;
78410;SDS011;67706;51.074;-1.796;2023-11-21T01:48:05;0.63;;;0.20;;
78410;SDS011;67706;51.074;-1.796;2023-11-21T01:50:33;0.68;;;0.30;;
78410;SDS011;67706;51.074;-1.796;2023-11-21T01:53:00;0.75;;;0.30;;
78410;SDS011;67706;51.074;-1.796;2023-11-21T01:55:28;2.03;;;0.40;;
78410;SDS011;67706;51.074;-1.796;2023-11-21T01:57:56;1.95;;;0.38;;
78410;SDS011;67706;51.074;-1.796;2023-11-21T02:00:23;0.52;;;0.30;;
78410;SDS011;67706;51.074;-1.796;2023-11-21T02:02:51;3.25;;;0.80;;
78410;SDS011;67706;51.074;-1.796;2023-11-21T02:05:18;1.80;;;0.60;;
78410;SDS011;67706;51.074;-1.796;2023-11-21T02:07:47;2.55;;;0.65;;
78410;SDS011;67706;51.074;-1.796;2023-11-21T02:10:15;0.25;;;0.25;;
78410;SDS011;67706;51.074;-1.796;2023-11-21T02:12:43;2.67;;;0.82;;
78410;SDS011;67706;51.074;-1.796;2023-11-21T02:15:10;1.90;;;0.35;;
78410;SDS011;67706;51.074;-1.796;2023-11-21T02:17:42;1.00;;;0.47;;
78410;SDS011;67706;51.074;-1.796;2023-11-21T02:20:09;3.45;;;0.40;;
78410;SDS011;67706;51.074;-1.796;2023-11-21T02:22:40;0.60;;;0.30;;
78410;SDS011;67706;51.074;-1.796;2023-11-21T02:25:09;0.55;;;0.30;;
78410;SDS011;67706;51.074;-1.796;2023-11-21T02:27:36;3.45;;;0.82;;
78410;SDS011;67706;51.074;-1.796;2023-11-21T02:30:03;0.60;;;0.35;;
78410;SDS011;67706;51.074;-1.796;2023-11-21T02:32:32;0.60;;;0.30;;
78410;SDS011;67706;51.074;-1.796;2023-11-21T02:34:59;1.20;;;0.30;;
78410;SDS011;67706;51.074;-1.796;2023-11-21T02:37:32;2.65;;;0.77;;
78410;SDS011;67706;51.074;-1.796;2023-11-21T02:40:00;2.60;;;0.43;;
78410;SDS011;67706;51.074;-1.796;2023-11-21T02:42:30;1.27;;;0.60;;
78410;SDS011;67706;51.074;-1.796;2023-11-21T02:44:56;2.05;;;0.52;;
78410;SDS011;67706;51.074;-1.796;2023-11-21T02:47:23;0.52;;;0.32;;
78410;SDS011;67706;51.074;-1.796;2023-11-21T02:49:50;1.42;;;0.55;;
78410;SDS011;67706;51.074;-1.796;2023-11-21T02:52:17;0.47;;;0.20;;
78410;SDS011;67706;51.074;-1.796;2023-11-21T02:54:44;0.93;;;0.50;;
78410;SDS011;67706;51.074;-1.796;2023-11-21T02:57:11;3.40;;;1.10;;
78410;SDS011;67706;51.074;-1.796;2023-11-21T02:59:39;0.70;;;0.55;;
78410;SDS011;67706;51.074;-1.796;2023-11-21T03:02:06;0.57;;;0.40;;
78410;SDS011;67706;51.074;-1.796;2023-11-21T03:04:33;0.65;;;0.50;;
78410;SDS011;67706;51.074;-1.796;2023-11-21T03:07:00;0.73;;;0.60;;
78410;SDS011;67706;51.074;-1.796;2023-11-21T03:09:27;0.25;;;0.22;;
78410;SDS011;67706;51.074;-1.796;2023-11-21T03:11:53;1.08;;;0.52;;
78410;SDS011;67706;51.074;-1.796;2023-11-21T03:14:20;1.40;;;0.75;;
78410;SDS011;67706;51.074;-1.796;2023-11-21T03:16:48;1.80;;;0.88;;
78410;SDS011;67706;51.074;-1.796;2023-11-21T03:19:15;1.45;;;1.10;;
78410;SDS011;67706;51.074;-1.796;2023-11-21T03:21:42;2.70;;;0.80;;
78410;SDS011;67706;51.074;-1.796;2023-11-21T03:24:09;1.92;;;1.15;;
78410;SDS011;67706;51.074;-1.796;2023-11-21T03:26:36;1.10;;;0.52;;
78410;SDS011;67706;51.074;-1.796;2023-11-21T03:29:03;1.70;;;1.10;;
78410;SDS011;67706;51.074;-1.796;2023-11-21T03:31:30;2.88;;;1.30;;
78410;SDS011;67706;51.074;-1.796;2023-11-21T03:33:59;1.65;;;1.15;;
78410;SDS011;67706;51.074;-1.796;2023-11-21T03:36:25;4.25;;;1.45;;
78410;SDS011;67706;51.074;-1.796;2023-11-21T03:38:52;2.60;;;1.42;;
78410;SDS011;67706;51.074;-1.796;2023-11-21T03:41:19;1.85;;;1.35;;
78410;SDS011;67706;51.074;-1.796;2023-11-21T03:43:45;3.00;;;1.40;;
78410;SDS011;67706;51.074;-1.796;2023-11-21T03:46:12;1.95;;;1.30;;
78410;SDS011;67706;51.074;-1.796;2023-11-21T03:48:38;3.63;;;1.40;;
78410;SDS011;67706;51.074;-1.796;2023-11-21T03:51:06;2.92;;;1.75;;
78410;SDS011;67706;51.074;-1.796;2023-11-21T03:53:33;1.20;;;0.98;;
78410;SDS011;67706;51.074;-1.796;2023-11-21T03:56:01;2.60;;;1.25;;
78410;SDS011;67706;51.074;-1.796;2023-11-21T03:58:28;3.55;;;1.48;;
78410;SDS011;67706;51.074;-1.796;2023-11-21T04:00:55;2.58;;;1.50;;
78410;SDS011;67706;51.074;-1.796;2023-11-21T04:03:21;4.47;;;1.60;;
78410;SDS011;67706;51.074;-1.796;2023-11-21T04:05:48;4.55;;;1.42;;
78410;SDS011;67706;51.074;-1.796;2023-11-21T04:08:16;3.72;;;1.58;;
78410;SDS011;67706;51.074;-1.796;2023-11-21T04:10:43;2.78;;;1.75;;
78410;SDS011;67706;51.074;-1.796;2023-11-21T04:13:09;3.75;;;1.90;;
78410;SDS011;67706;51.074;-1.796;2023-11-21T04:15:36;2.30;;;1.65;;
78410;SDS011;67706;51.074;-1.796;2023-11-21T04:18:03;0.43;;;0.43;;
78410;SDS011;67706;51.074;-1.796;2023-11-21T04:20:29;3.20;;;1.85;;
78410;SDS011;67706;51.074;-1.796;2023-11-21T04:22:56;4.15;;;2.20;;
78410;SDS011;67706;51.074;-1.796;2023-11-21T04:25:24;3.30;;;1.80;;
78410;SDS011;67706;51.074;-1.796;2023-11-21T04:27:51;1.65;;;0.82;;
78410;SDS011;67706;51.074;-1.796;2023-11-21T04:30:18;3.50;;;2.13;;
78410;SDS011;67706;51.074;-1.796;2023-11-21T04:32:45;2.33;;;0.82;;
78410;SDS011;67706;51.074;-1.796;2023-11-21T04:35:12;3.67;;;2.20;;
78410;SDS011;67706;51.074;-1.796;2023-11-21T04:37:40;5.13;;;2.28;;
78410;SDS011;67706;51.074;-1.796;2023-11-21T04:40:07;4.45;;;2.47;;
78410;SDS011;67706;51.074;-1.796;2023-11-21T04:42:36;3.70;;;1.73;;
78410;SDS011;67706;51.074;-1.796;2023-11-21T04:45:03;3.30;;;2.20;;
78410;SDS011;67706;51.074;-1.796;2023-11-21T04:47:33;4.60;;;2.25;;
78410;SDS011;67706;51.074;-1.796;2023-11-21T04:50:00;3.70;;;2.10;;
78410;SDS011;67706;51.074;-1.796;2023-11-21T04:52:28;5.70;;;2.35;;
78410;SDS011;67706;51.074;-1.796;2023-11-21T04:54:55;3.42;;;2.10;;
78410;SDS011;67706;51.074;-1.796;2023-11-21T04:57:23;5.65;;;2.70;;
78410;SDS011;67706;51.074;-1.796;2023-11-21T04:59:51;6.45;;;2.72;;
78410;SDS011;67706;51.074;-1.796;2023-11-21T05:02:18;1.48;;;0.80;;
78410;SDS011;67706;51.074;-1.796;2023-11-21T05:04:46;4.65;;;2.58;;
78410;SDS011;67706;51.074;-1.796;2023-11-21T05:07:13;4.97;;;2.45;;
78410;SDS011;67706;51.074;-1.796;2023-11-21T05:09:41;3.90;;;2.20;;
78410;SDS011;67706;51.074;-1.796;2023-11-21T05:12:09;7.07;;;2.97;;
78410;SDS011;67706;51.074;-1.796;2023-11-21T05:14:37;4.95;;;2.63;;
78410;SDS011;67706;51.074;-1.796;2023-11-21T05:17:05;4.28;;;2.60;;
78410;SDS011;67706;51.074;-1.796;2023-11-21T05:19:33;3.58;;;2.30;;
78410;SDS011;67706;51.074;-1.796;2023-11-21T05:22:00;4.18;;;2.42;;
78410;SDS011;67706;51.074;-1.796;2023-11-21T05:24:27;3.08;;;1.52;;
78410;SDS011;67706;51.074;-1.796;2023-11-21T05:26:54;3.55;;;1.48;;
78410;SDS011;67706;51.074;-1.796;2023-11-21T05:29:21;5.22;;;2.72;;
78410;SDS011;67706;51.074;-1.796;2023-11-21T05:31:47;5.50;;;2.85;;
78410;SDS011;67706;51.074;-1.796;2023-11-21T05:34:16;5.25;;;2.40;;
78410;SDS011;67706;51.074;-1.796;2023-11-21T05:36:43;4.63;;;2.03;;
78410;SDS011;67706;51.074;-1.796;2023-11-21T05:39:10;7.03;;;2.50;;
78410;SDS011;67706;51.074;-1.796;2023-11-21T05:41:37;4.85;;;1.88;;
78410;SDS011;67706;51.074;-1.796;2023-11-21T05:44:04;2.50;;;1.27;;
78410;SDS011;67706;51.074;-1.796;2023-11-21T05:46:31;5.05;;;2.88;;
78410;SDS011;67706;51.074;-1.796;2023-11-21T05:48:58;3.78;;;2.40;;
78410;SDS011;67706;51.074;-1.796;2023-11-21T05:51:26;2.08;;;1.23;;
78410;SDS011;67706;51.074;-1.796;2023-11-21T05:53:53;3.65;;;1.80;;
78410;SDS011;67706;51.074;-1.796;2023-11-21T05:56:19;3.72;;;2.00;;
78410;SDS011;67706;51.074;-1.796;2023-11-21T05:58:46;2.38;;;1.35;;
78410;SDS011;67706;51.074;-1.796;2023-11-21T06:01:13;2.78;;;1.90;;
78410;SDS011;67706;51.074;-1.796;2023-11-21T06:03:40;2.70;;;1.30;;
78410;SDS011;67706;51.074;-1.796;2023-11-21T06:06:07;3.03;;;1.83;;
78410;SDS011;67706;51.074;-1.796;2023-11-21T06:08:35;2.83;;;1.73;;
78410;SDS011;67706;51.074;-1.796;2023-11-21T06:11:02;2.28;;;1.20;;
78410;SDS011;67706;51.074;-1.796;2023-11-21T06:13:29;2.92;;;1.70;;
78410;SDS011;67706;51.074;-1.796;2023-11-21T06:15:56;1.75;;;1.10;;
78410;SDS011;67706;51.074;-1.796;2023-11-21T06:18:22;2.40;;;1.80;;
78410;SDS011;67706;51.074;-1.796;2023-11-21T06:20:49;2.95;;;1.17;;
78410;SDS011;67706;51.074;-1.796;2023-11-21T06:23:17;2.63;;;1.63;;
78410;SDS011;67706;51.074;-1.796;2023-11-21T06:25:45;1.17;;;0.98;;
78410;SDS011;67706;51.074;-1.796;2023-11-21T06:28:12;1.02;;;0.70;;
78410;SDS011;67706;51.074;-1.796;2023-11-21T06:30:42;2.58;;;1.30;;
78410;SDS011;67706;51.074;-1.796;2023-11-21T06:33:09;2.70;;;1.23;;
78410;SDS011;67706;51.074;-1.796;2023-11-21T06:35:36;2.15;;;1.02;;
78410;SDS011;67706;51.074;-1.796;2023-11-21T06:38:03;1.38;;;0.88;;
78410;SDS011;67706;51.074;-1.796;2023-11-21T06:42:57;1.50;;;0.90;;
78410;SDS011;67706;51.074;-1.796;2023-11-21T06:45:25;0.88;;;0.57;;
78410;SDS011;67706;51.074;-1.796;2023-11-21T06:47:52;0.90;;;0.55;;
78410;SDS011;67706;51.074;-1.796;2023-11-21T06:50:19;1.13;;;0.65;;
78410;SDS011;67706;51.074;-1.796;2023-11-21T06:52:46;1.55;;;0.50;;
78410;SDS011;67706;51.074;-1.796;2023-11-21T06:55:13;2.45;;;0.90;;
78410;SDS011;67706;51.074;-1.796;2023-11-21T06:57:41;0.82;;;0.70;;
78410;SDS011;67706;51.074;-1.796;2023-11-21T07:00:10;0.30;;;0.20;;
78410;SDS011;67706;51.074;-1.796;2023-11-21T07:02:37;0.38;;;0.32;;
78410;SDS011;67706;51.074;-1.796;2023-11-21T07:05:04;2.35;;;0.63;;
78410;SDS011;67706;51.074;-1.796;2023-11-21T07:07:31;0.50;;;0.30;;
78410;SDS011;67706;51.074;-1.796;2023-11-21T07:10:00;0.60;;;0.28;;
78410;SDS011;67706;51.074;-1.796;2023-11-21T07:12:28;0.90;;;0.55;;
78410;SDS011;67706;51.074;-1.796;2023-11-21T07:14:55;0.60;;;0.50;;
78410;SDS011;67706;51.074;-1.796;2023-11-21T07:17:23;0.40;;;0.30;;
78410;SDS011;67706;51.074;-1.796;2023-11-21T07:19:49;0.93;;;0.38;;
78410;SDS011;67706;51.074;-1.796;2023-11-21T07:22:16;0.60;;;0.40;;
78410;SDS011;67706;51.074;-1.796;2023-11-21T07:24:47;0.10;;;0.10;;
78410;SDS011;67706;51.074;-1.796;2023-11-21T07:27:14;0.93;;;0.30;;
78410;SDS011;67706;51.074;-1.796;2023-11-21T07:29:41;1.10;;;0.30;;
78410;SDS011;67706;51.074;-1.796;2023-11-21T07:32:08;0.50;;;0.20;;
78410;SDS011;67706;51.074;-1.796;2023-11-21T07:34:36;0.73;;;0.25;;
78410;SDS011;67706;51.074;-1.796;2023-11-21T07:37:03;0.93;;;0.43;;
78410;SDS011;67706;51.074;-1.796;2023-11-21T07:39:30;0.20;;;0.20;;
78410;SDS011;67706;51.074;-1.796;2023-11-21T07:41:56;0.15;;;0.15;;
78410;SDS011;67706;51.074;-1.796;2023-11-21T07:44:23;0.13;;;0.13;;
78410;SDS011;67706;51.074;-1.796;2023-11-21T07:46:51;0.60;;;0.32;;
78410;SDS011;67706;51.074;-1.796;2023-11-21T07:49:17;0.55;;;0.20;;
78410;SDS011;67706;51.074;-1.796;2023-11-21T07:51:47;0.82;;;0.22;;
78410;SDS011;67706;51.074;-1.796;2023-11-21T07:54:14;0.35;;;0.28;;
78410;SDS011;67706;51.074;-1.796;2023-11-21T07:56:41;0.10;;;0.10;;
78410;SDS011;67706;51.074;-1.796;2023-11-21T07:59:07;0.40;;;0.28;;
78410;SDS011;67706;51.074;-1.796;2023-11-21T08:01:34;0.57;;;0.40;;
78410;SDS011;67706;51.074;-1.796;2023-11-21T08:04:00;0.13;;;0.13;;
78410;SDS011;67706;51.074;-1.796;2023-11-21T08:06:28;0.20;;;0.13;;
78410;SDS011;67706;51.074;-1.796;2023-11-21T08:08:57;0.63;;;0.20;;
78410;SDS011;67706;51.074;-1.796;2023-11-21T08:11:24;2.38;;;0.22;;
78410;SDS011;67706;51.074;-1.796;2023-11-21T08:13:51;0.32;;;0.20;;
78410;SDS011;67706;51.074;-1.796;2023-11-21T08:16:18;0.57;;;0.30;;
78410;SDS011;67706;51.074;-1.796;2023-11-21T08:18:45;0.50;;;0.20;;
78410;SDS011;67706;51.074;-1.796;2023-11-21T08:21:12;0.85;;;0.17;;
78410;SDS011;67706;51.074;-1.796;2023-11-21T08:23:39;1.48;;;0.30;;
78410;SDS011;67706;51.074;-1.796;2023-11-21T08:26:07;0.50;;;0.40;;
78410;SDS011;67706;51.074;-1.796;2023-11-21T08:28:34;1.33;;;0.40;;
78410;SDS011;67706;51.074;-1.796;2023-11-21T08:31:00;6.45;;;0.90;;
78410;SDS011;67706;51.074;-1.796;2023-11-21T08:33:27;0.38;;;0.25;;
78410;SDS011;67706;51.074;-1.796;2023-11-21T08:35:54;0.73;;;0.30;;
78410;SDS011;67706;51.074;-1.796;2023-11-21T08:38:21;1.50;;;0.40;;
78410;SDS011;67706;51.074;-1.796;2023-11-21T08:40:47;0.20;;;0.20;;
78410;SDS011;67706;51.074;-1.796;2023-11-21T08:43:15;1.23;;;0.40;;
78410;SDS011;67706;51.074;-1.796;2023-11-21T08:45:45;3.13;;;0.60;;
78410;SDS011;67706;51.074;-1.796;2023-11-21T08:48:12;0.95;;;0.43;;
78410;SDS011;67706;51.074;-1.796;2023-11-21T08:53:05;1.27;;;0.40;;
78410;SDS011;67706;51.074;-1.796;2023-11-21T08:55:31;2.22;;;0.30;;
78410;SDS011;67706;51.074;-1.796;2023-11-21T08:58:02;2.08;;;0.57;;
78410;SDS011;67706;51.074;-1.796;2023-11-21T09:00:31;5.47;;;0.40;;
78410;SDS011;67706;51.074;-1.796;2023-11-21T09:02:58;3.03;;;0.70;;
78410;SDS011;67706;51.074;-1.796;2023-11-21T09:05:25;1.33;;;0.40;;
78410;SDS011;67706;51.074;-1.796;2023-11-21T09:07:52;1.75;;;0.60;;
78410;SDS011;67706;51.074;-1.796;2023-11-21T09:10:18;0.77;;;0.50;;
78410;SDS011;67706;51.074;-1.796;2023-11-21T09:12:45;1.15;;;0.60;;
78410;SDS011;67706;51.074;-1.796;2023-11-21T09:15:12;1.10;;;0.70;;
78410;SDS011;67706;51.074;-1.796;2023-11-21T09:17:41;1.77;;;0.35;;
78410;SDS011;67706;51.074;-1.796;2023-11-21T09:20:08;0.60;;;0.32;;
78410;SDS011;67706;51.074;-1.796;2023-11-21T09:22:36;2.63;;;0.55;;
78410;SDS011;67706;51.074;-1.796;2023-11-21T09:25:03;0.63;;;0.30;;
78410;SDS011;67706;51.074;-1.796;2023-11-21T09:27:32;1.30;;;0.70;;
78410;SDS011;67706;51.074;-1.796;2023-11-21T09:29:59;0.70;;;0.52;;
78410;SDS011;67706;51.074;-1.796;2023-11-21T09:32:25;0.70;;;0.57;;
78410;SDS011;67706;51.074;-1.796;2023-11-21T09:34:53;0.22;;;0.22;;
78410;SDS011;67706;51.074;-1.796;2023-11-21T09:37:23;0.60;;;0.50;;
78410;SDS011;67706;51.074;-1.796;2023-11-21T09:39:52;1.15;;;0.60;;
78410;SDS011;67706;51.074;-1.796;2023-11-21T09:42:20;0.35;;;0.30;;
78410;SDS011;67706;51.074;-1.796;2023-11-21T09:44:54;0.43;;;0.40;;
78410;SDS011;67706;51.074;-1.796;2023-11-21T09:47:26;2.47;;;0.43;;
78410;SDS011;67706;51.074;-1.796;2023-11-21T09:49:56;0.43;;;0.43;;
78410;SDS011;67706;51.074;-1.796;2023-11-21T09:52:26;1.17;;;0.50;;
78410;SDS011;67706;51.074;-1.796;2023-11-21T09:54:54;1.98;;;0.63;;
78410;SDS011;67706;51.074;-1.796;2023-11-21T09:57:23;0.47;;;0.38;;
78410;SDS011;67706;51.074;-1.796;2023-11-21T09:59:51;1.45;;;0.70;;
78410;SDS011;67706;51.074;-1.796;2023-11-21T10:02:21;1.00;;;0.20;;
78410;SDS011;67706;51.074;-1.796;2023-11-21T10:04:51;0.85;;;0.50;;
78410;SDS011;67706;51.074;-1.796;2023-11-21T10:07:19;2.20;;;0.30;;
78410;SDS011;67706;51.074;-1.796;2023-11-21T10:09:47;0.77;;;0.50;;
78410;SDS011;67706;51.074;-1.796;2023-11-21T10:12:17;0.95;;;0.40;;
78410;SDS011;67706;51.074;-1.796;2023-11-21T10:14:45;0.93;;;0.40;;
78410;SDS011;67706;51.074;-1.796;2023-11-21T10:17:14;0.50;;;0.45;;
78410;SDS011;67706;51.074;-1.796;2023-11-21T10:19:43;1.08;;;0.52;;
78410;SDS011;67706;51.074;-1.796;2023-11-21T10:22:13;1.02;;;0.45;;
78410;SDS011;67706;51.074;-1.796;2023-11-21T10:24:43;1.55;;;0.50;;
78410;SDS011;67706;51.074;-1.796;2023-11-21T10:27:09;0.80;;;0.60;;
78410;SDS011;67706;51.074;-1.796;2023-11-21T10:29:36;0.85;;;0.57;;
78410;SDS011;67706;51.074;-1.796;2023-11-21T10:32:03;1.80;;;0.70;;
78410;SDS011;67706;51.074;-1.796;2023-11-21T10:34:30;2.00;;;0.77;;
78410;SDS011;67706;51.074;-1.796;2023-11-21T10:36:58;0.75;;;0.60;;
78410;SDS011;67706;51.074;-1.796;2023-11-21T10:39:24;0.47;;;0.40;;
78410;SDS011;67706;51.074;-1.796;2023-11-21T10:41:57;1.40;;;0.47;;
78410;SDS011;67706;51.074;-1.796;2023-11-21T10:44:23;0.70;;;0.63;;
78410;SDS011;67706;51.074;-1.796;2023-11-21T10:46:51;1.17;;;0.40;;
78410;SDS011;67706;51.074;-1.796;2023-11-21T10:49:21;1.23;;;0.52;;
78410;SDS011;67706;51.074;-1.796;2023-11-21T10:51:49;1.85;;;0.80;;
78410;SDS011;67706;51.074;-1.796;2023-11-21T10:54:18;1.10;;;0.77;;
78410;SDS011;67706;51.074;-1.796;2023-11-21T10:56:46;1.02;;;0.82;;
78410;SDS011;67706;51.074;-1.796;2023-11-21T10:59:17;3.17;;;0.63;;
78410;SDS011;67706;51.074;-1.796;2023-11-21T11:01:46;1.02;;;0.60;;
78410;SDS011;67706;51.074;-1.796;2023-11-21T11:04:16;0.82;;;0.65;;
78410;SDS011;67706;51.074;-1.796;2023-11-21T11:06:44;1.85;;;0.50;;
78410;SDS011;67706;51.074;-1.796;2023-11-21T11:09:16;1.55;;;0.55;;
78410;SDS011;67706;51.074;-1.796;2023-11-21T11:11:43;0.47;;;0.40;;
78410;SDS011;67706;51.074;-1.796;2023-11-21T11:14:10;3.00;;;1.65;;
78410;SDS011;67706;51.074;-1.796;2023-11-21T11:16:40;1.48;;;0.95;;
78410;SDS011;67706;51.074;-1.796;2023-11-21T11:19:08;3.67;;;1.05;;
78410;SDS011;67706;51.074;-1.796;2023-11-21T11:21:38;0.40;;;0.40;;
78410;SDS011;67706;51.074;-1.796;2023-11-21T11:24:20;0.70;;;0.40;;
78410;SDS011;67706;51.074;-1.796;2023-11-21T11:27:16;1.80;;;0.95;;
78410;SDS011;67706;51.074;-1.796;2023-11-21T11:29:55;1.02;;;0.57;;
78410;SDS011;67706;51.074;-1.796;2023-11-21T11:32:36;1.05;;;0.80;;
78410;SDS011;67706;51.074;-1.796;2023-11-21T11:35:15;1.60;;;0.82;;
78410;SDS011;67706;51.074;-1.796;2023-11-21T11:37:49;2.08;;;0.80;;
78410;SDS011;67706;51.074;-1.796;2023-11-21T11:40:16;1.35;;;0.65;;
78410;SDS011;67706;51.074;-1.796;2023-11-21T11:42:55;1.38;;;0.98;;
78410;SDS011;67706;51.074;-1.796;2023-11-21T11:45:23;4.30;;;0.90;;
78410;SDS011;67706;51.074;-1.796;2023-11-21T11:48:00;2.75;;;1.23;;
78410;SDS011;67706;51.074;-1.796;2023-11-21T11:50:28;1.35;;;0.70;;
78410;SDS011;67706;51.074;-1.796;2023-11-21T11:52:55;1.52;;;0.68;;
78410;SDS011;67706;51.074;-1.796;2023-11-21T11:55:38;2.78;;;1.10;;
78410;SDS011;67706;51.074;-1.796;2023-11-21T11:58:06;1.80;;;0.93;;
78410;SDS011;67706;51.074;-1.796;2023-11-21T12:00:33;1.20;;;0.68;;
78410;SDS011;67706;51.074;-1.796;2023-11-21T12:03:05;0.70;;;0.60;;
78410;SDS011;67706;51.074;-1.796;2023-11-21T12:05:34;1.08;;;0.63;;
78410;SDS011;67706;51.074;-1.796;2023-11-21T12:08:04;1.45;;;1.10;;
78410;SDS011;67706;51.074;-1.796;2023-11-21T12:10:32;0.32;;;0.30;;
78410;SDS011;67706;51.074;-1.796;2023-11-21T12:13:01;1.05;;;0.75;;
78410;SDS011;67706;51.074;-1.796;2023-11-21T12:15:30;0.22;;;0.22;;
78410;SDS011;67706;51.074;-1.796;2023-11-21T12:17:57;1.95;;;0.68;;
78410;SDS011;67706;51.074;-1.796;2023-11-21T12:20:26;1.63;;;0.63;;
78410;SDS011;67706;51.074;-1.796;2023-11-21T12:22:54;2.22;;;0.90;;
78410;SDS011;67706;51.074;-1.796;2023-11-21T12:25:22;2.45;;;1.10;;
78410;SDS011;67706;51.074;-1.796;2023-11-21T12:27:50;1.10;;;0.52;;
78410;SDS011;67706;51.074;-1.796;2023-11-21T12:30:18;0.95;;;0.52;;
78410;SDS011;67706;51.074;-1.796;2023-11-21T12:32:48;1.20;;;0.60;;
78410;SDS011;67706;51.074;-1.796;2023-11-21T12:35:16;4.28;;;0.82;;
78410;SDS011;67706;51.074;-1.796;2023-11-21T12:37:46;2.17;;;0.98;;
78410;SDS011;67706;51.074;-1.796;2023-11-21T12:40:13;2.10;;;1.02;;
78410;SDS011;67706;51.074;-1.796;2023-11-21T12:42:42;1.60;;;1.02;;
78410;SDS011;67706;51.074;-1.796;2023-11-21T12:45:18;0.77;;;0.38;;
78410;SDS011;67706;51.074;-1.796;2023-11-21T12:47:46;1.10;;;0.73;;
78410;SDS011;67706;51.074;-1.796;2023-11-21T12:50:14;0.73;;;0.52;;
78410;SDS011;67706;51.074;-1.796;2023-11-21T12:52:41;1.15;;;0.70;;
78410;SDS011;67706;51.074;-1.796;2023-11-21T12:55:15;1.67;;;0.60;;
78410;SDS011;67706;51.074;-1.796;2023-11-21T12:57:42;2.13;;;0.93;;
78410;SDS011;67706;51.074;-1.796;2023-11-21T13:00:11;3.85;;;1.35;;
78410;SDS011;67706;51.074;-1.796;2023-11-21T13:02:50;7.03;;;2.47;;
78410;SDS011;67706;51.074;-1.796;2023-11-21T13:05:23;3.78;;;1.38;;
78410;SDS011;67706;51.074;-1.796;2023-11-21T13:07:50;2.03;;;1.10;;
78410;SDS011;67706;51.074;-1.796;2023-11-21T13:10:20;1.50;;;1.08;;
78410;SDS011;67706;51.074;-1.796;2023-11-21T13:12:51;1.67;;;0.60;;
78410;SDS011;67706;51.074;-1.796;2023-11-21T13:15:18;0.90;;;0.70;;
78410;SDS011;67706;51.074;-1.796;2023-11-21T13:17:45;0.80;;;0.35;;
78410;SDS011;67706;51.074;-1.796;2023-11-21T13:20:12;1.02;;;0.55;;
78410;SDS011;67706;51.074;-1.796;2023-11-21T13:22:45;1.23;;;0.63;;
78410;SDS011;67706;51.074;-1.796;2023-11-21T13:25:14;0.95;;;0.55;;
78410;SDS011;67706;51.074;-1.796;2023-11-21T13:27:44;1.75;;;0.70;;
78410;SDS011;67706;51.074;-1.796;2023-11-21T13:30:12;1.55;;;0.80;;
78410;SDS011;67706;51.074;-1.796;2023-11-21T13:32:42;1.13;;;0.77;;
78410;SDS011;67706;51.074;-1.796;2023-11-21T13:35:10;0.63;;;0.32;;
78410;SDS011;67706;51.074;-1.796;2023-11-21T13:37:46;0.93;;;0.50;;
78410;SDS011;67706;51.074;-1.796;2023-11-21T13:40:19;0.68;;;0.50;;
78410;SDS011;67706;51.074;-1.796;2023-11-21T13:42:49;0.68;;;0.40;;
78410;SDS011;67706;51.074;-1.796;2023-11-21T13:45:20;1.48;;;0.60;;
78410;SDS011;67706;51.074;-1.796;2023-11-21T13:47:48;0.55;;;0.52;;
78410;SDS011;67706;51.074;-1.796;2023-11-21T13:50:17;1.10;;;0.40;;
78410;SDS011;67706;51.074;-1.796;2023-11-21T13:52:48;0.60;;;0.30;;
78410;SDS011;67706;51.074;-1.796;2023-11-21T13:55:16;1.05;;;0.60;;
78410;SDS011;67706;51.074;-1.796;2023-11-21T13:57:43;1.75;;;0.80;;
78410;SDS011;67706;51.074;-1.796;2023-11-21T14:00:14;2.28;;;0.40;;
78410;SDS011;67706;51.074;-1.796;2023-11-21T14:03:04;2.25;;;0.70;;
78410;SDS011;67706;51.074;-1.796;2023-11-21T14:05:37;1.67;;;0.80;;
78410;SDS011;67706;51.074;-1.796;2023-11-21T14:08:04;1.75;;;0.40;;
78410;SDS011;67706;51.074;-1.796;2023-11-21T14:10:31;1.90;;;0.70;;
78410;SDS011;67706;51.074;-1.796;2023-11-21T14:13:05;0.85;;;0.40;;
78410;SDS011;67706;51.074;-1.796;2023-11-21T14:15:33;0.22;;;0.15;;
78410;SDS011;67706;51.074;-1.796;2023-11-21T14:18:03;0.90;;;0.20;;
78410;SDS011;67706;51.074;-1.796;2023-11-21T14:20:33;2.67;;;0.60;;
78410;SDS011;67706;51.074;-1.796;2023-11-21T14:23:01;0.08;;;0.08;;
78410;SDS011;67706;51.074;-1.796;2023-11-21T14:25:28;0.03;;;0.03;;
78410;SDS011;67706;51.074;-1.796;2023-11-21T14:27:54;0.93;;;0.30;;
78410;SDS011;67706;51.074;-1.796;2023-11-21T14:30:22;0.13;;;0.10;;
78410;SDS011;67706;51.074;-1.796;2023-11-21T14:32:50;1.20;;;0.40;;
78410;SDS011;67706;51.074;-1.796;2023-11-21T14:35:17;0.40;;;0.20;;
78410;SDS011;67706;51.074;-1.796;2023-11-21T14:37:44;2.10;;;0.32;;
78410;SDS011;67706;51.074;-1.796;2023-11-21T14:40:11;4.65;;;0.55;;
78410;SDS011;67706;51.074;-1.796;2023-11-21T14:42:41;1.70;;;0.70;;